EBFN weather

Koksijde Air Base
Koksijde, West Flanders, Belgium

Public forecast

Using degrees Celsius for public forecast. Weather courtesy of forecast.io.

METAR (pilot weather report)

Retrieved 2019/04/25 07:25 UTC (0 seconds ago):

EBFN 250725Z 16015KT 9999 -RA SCT045 BKN060 12/08 Q1001 BLU BLU

TAF (pilot weather forecast)

Forecast is more than 12 hours old.

Retrieved 2019/03/21 19:00 UTC (1 month ago):

TAF EBFN 211541Z 2119/2207 01003KT 6000 BKN009 BECMG 2123/2201 3000 BR FEW012 TEMPO 2201/2207 1200 BR PROB40 TEMPO 2203/2207 0200 FG BKN001